Time;durP1;ratioP1;P1;durP2;ratioP2;P2;SDS_P1;SDS_P2;PMS_P1;PMS_P2;Temp;Humidity;BMP_temperature;BMP_pressure;BME280_temperature;BME280_humidity;BME280_pressure;Samples;Min_cycle;Max_cycle;Signal;HPM_P1;HPM_P2
2021/12/12 00:00:55;;;;;;;10.53;5.80;;;;;;;1.48;100.00;101156.63;5074066;28;20892;-77
2021/12/12 00:03:39;;;;;;;5.60;5.10;;;;;;;1.51;100.00;101166.91;5073848;28;20261;-76
2021/12/12 00:06:13;;;;;;;4.37;3.63;;;;;;;1.51;100.00;101166.09;5074166;28;20981;-76
2021/12/12 00:08:39;;;;;;;3.17;2.73;;;;;;;1.51;100.00;101160.72;5073861;28;20447;-76
2021/12/12 00:11:08;;;;;;;14.17;4.40;;;;;;;1.55;100.00;101156.50;5073887;28;20495;-77
2021/12/12 00:13:50;;;;;;;5.23;2.63;;;;;;;1.54;100.00;101154.84;5074068;28;20754;-76
2021/12/12 00:16:15;;;;;;;9.33;6.37;;;;;;;1.51;100.00;101153.47;5072420;28;20425;-77
2021/12/12 00:18:42;;;;;;;2.07;1.93;;;;;;;1.55;100.00;101154.63;5073614;28;20641;-76
2021/12/12 00:21:10;;;;;;;3.10;2.90;;;;;;;1.58;100.00;101148.75;5073588;28;20257;-76
2021/12/12 00:23:36;;;;;;;2.47;2.37;;;;;;;1.58;100.00;101145.25;5073469;28;20320;-76
2021/12/12 00:26:03;;;;;;;3.63;3.33;;;;;;;1.54;100.00;101139.53;5073356;28;20523;-76
2021/12/12 00:28:28;;;;;;;7.93;4.47;;;;;;;1.56;100.00;101140.09;5073606;28;20178;-77
2021/12/12 00:31:07;;;;;;;4.33;3.90;;;;;;;1.61;100.00;101156.41;5073400;28;20782;-76
2021/12/12 00:33:34;;;;;;;2.57;2.37;;;;;;;1.59;100.00;101147.75;5073445;28;20166;-76
2021/12/12 00:35:59;;;;;;;1.43;0.90;;;;;;;1.60;100.00;101154.75;5072984;28;20424;-76
2021/12/12 00:38:28;;;;;;;2.37;2.17;;;;;;;1.61;100.00;101145.63;5073375;28;20862;-76
2021/12/12 00:40:59;;;;;;;1.50;1.30;;;;;;;1.62;100.00;101162.59;5073528;28;20213;-76
2021/12/12 00:43:27;;;;;;;14.40;6.77;;;;;;;1.64;100.00;101157.78;5080248;28;20410;-77
2021/12/12 00:45:58;;;;;;;1.33;1.30;;;;;;;1.60;100.00;101154.75;5081374;28;20292;-77
2021/12/12 00:48:26;;;;;;;4.20;3.80;;;;;;;1.69;100.00;101164.09;5074626;28;20530;-77
2021/12/12 00:50:52;;;;;;;8.47;5.33;;;;;;;1.72;100.00;101168.19;5073966;28;20417;-77
2021/12/12 00:53:20;;;;;;;5.70;4.13;;;;;;;1.71;100.00;101167.38;5070967;28;20182;-76
2021/12/12 00:55:47;;;;;;;3.97;1.77;;;;;;;1.72;100.00;101158.25;5073123;28;20825;-77
2021/12/12 00:58:15;;;;;;;20.07;6.40;;;;;;;1.72;100.00;101160.94;5073022;28;20433;-77
2021/12/12 01:00:52;;;;;;;6.13;3.97;;;;;;;1.74;100.00;101160.72;5073051;28;21179;-77
2021/12/12 01:03:27;;;;;;;5.93;5.37;;;;;;;1.75;100.00;101162.38;5072905;28;20417;-76
2021/12/12 01:05:55;;;;;;;5.23;2.43;;;;;;;1.79;100.00;101164.34;5072713;28;20547;-77
2021/12/12 01:08:20;;;;;;;1.07;1.07;;;;;;;1.79;100.00;101161.66;5072646;28;20179;-76
2021/12/12 01:10:51;;;;;;;4.13;3.93;;;;;;;1.80;100.00;101154.38;5072768;28;20428;-76
2021/12/12 01:13:17;;;;;;;7.57;4.57;;;;;;;1.81;100.00;101158.72;5072939;28;20414;-77
2021/12/12 01:15:53;;;;;;;4.73;4.43;;;;;;;1.81;100.00;101158.72;5072607;28;20892;-76
2021/12/12 01:18:28;;;;;;;10.47;5.43;;;;;;;1.84;100.00;101149.34;5072772;28;20212;-77
2021/12/12 01:21:14;;;;;;;5.40;3.30;;;;;;;1.86;100.00;101153.44;5072615;28;20197;-76
2021/12/12 01:23:55;;;;;;;9.83;4.67;;;;;;;1.92;100.00;101162.47;5072784;28;20171;-77
2021/12/12 01:26:21;;;;;;;6.53;3.40;;;;;;;1.97;100.00;101162.56;5072464;28;20194;-77
2021/12/12 01:28:53;;;;;;;2.73;2.53;;;;;;;1.99;100.00;101155.88;5072502;28;20170;-76
2021/12/12 01:31:29;;;;;;;4.73;4.07;;;;;;;2.01;100.00;101155.63;5072414;28;20500;-76
2021/12/12 01:34:11;;;;;;;5.50;5.00;;;;;;;2.03;100.00;101143.59;5072386;28;20846;-77
2021/12/12 01:37:50;;;;;;;5.40;4.87;;;;;;;2.06;100.00;101159.28;5072261;28;20175;-77
2021/12/12 01:39:52;;;;;;;7.57;6.23;;;;;;;2.11;100.00;101155.84;5066248;28;20503;-77
2021/12/12 01:42:26;;;;;;;5.37;4.87;;;;;;;2.16;100.00;101155.94;5072422;28;20261;-77
2021/12/12 01:44:57;;;;;;;11.67;5.40;;;;;;;2.19;100.00;101166.28;5072010;28;21033;-76
2021/12/12 01:47:28;;;;;;;5.90;5.33;;;;;;;2.21;100.00;101157.97;5071998;28;20560;-77
2021/12/12 01:49:59;;;;;;;10.70;7.63;;;;;;;2.25;100.00;101159.94;5071993;28;20198;-76
2021/12/12 01:52:27;;;;;;;12.97;4.73;;;;;;;2.26;100.00;101144.56;5072030;28;20593;-76
2021/12/12 01:55:01;;;;;;;2.83;2.63;;;;;;;2.30;100.00;101153.81;5071749;28;20174;-76
2021/12/12 01:57:33;;;;;;;13.20;7.53;;;;;;;2.33;100.00;101156.06;5071990;28;20185;-77
2021/12/12 02:00:03;;;;;;;1.97;1.47;;;;;;;2.39;100.00;101149.69;5071754;28;20175;-76
2021/12/12 02:02:32;;;;;;;7.33;3.40;;;;;;;2.43;100.00;101145.44;5071320;28;20186;-77
2021/12/12 02:05:04;;;;;;;6.37;3.57;;;;;;;2.43;100.00;101147.31;5070505;28;20530;-76
2021/12/12 02:07:35;;;;;;;3.63;2.30;;;;;;;2.43;100.00;101123.06;5071598;28;20468;-76
2021/12/12 02:10:07;;;;;;;5.17;4.60;;;;;;;2.43;100.00;101147.31;5071602;28;20178;-77
2021/12/12 02:12:33;;;;;;;4.33;3.83;;;;;;;2.46;100.00;101146.84;5071497;28;20504;-76
2021/12/12 02:14:59;;;;;;;3.60;2.10;;;;;;;2.51;100.00;101152.34;5071639;28;20249;-76
2021/12/12 02:17:35;;;;;;;2.93;2.73;;;;;;;2.54;100.00;101144.59;5071634;28;20235;-77
2021/12/12 02:22:55;;;;;;;3.60;3.10;;;;;;;2.58;100.00;101144.91;5071452;28;20622;-77
2021/12/12 02:36:43;;;;;;;2.83;1.53;;;;;;;2.47;100.00;101146.63;5071308;28;20177;-76
2021/12/12 02:39:17;;;;;;;4.10;3.70;;;;;;;2.46;100.00;101158.47;5071051;28;20676;-76
2021/12/12 02:41:47;;;;;;;6.10;5.17;;;;;;;2.45;100.00;101147.91;5070777;28;20175;-76
2021/12/12 02:44:13;;;;;;;4.67;4.27;;;;;;;2.45;100.00;101151.41;5071253;28;20178;-76
2021/12/12 02:46:42;;;;;;;3.93;3.53;;;;;;;2.46;100.00;101149.53;5070848;28;20198;-76
2021/12/12 02:49:24;;;;;;;10.80;5.50;;;;;;;2.43;100.00;101148.13;5070907;28;20589;-76
2021/12/12 02:51:51;;;;;;;0.77;0.77;;;;;;;2.49;100.00;101154.47;5070943;28;20308;-76
2021/12/12 02:54:17;;;;;;;6.80;6.10;;;;;;;2.50;100.00;101148.00;5070871;28;20178;-76
2021/12/12 02:56:46;;;;;;;6.13;5.13;;;;;;;2.52;100.00;101157.50;5070755;28;20752;-77
2021/12/12 02:59:17;;;;;;;5.77;2.93;;;;;;;2.51;100.00;101168.53;5070725;28;20183;-77
2021/12/12 03:02:07;;;;;;;7.80;5.00;;;;;;;2.55;100.00;101183.97;5070833;28;20562;-76
2021/12/12 03:04:33;;;;;;;7.60;5.70;;;;;;;2.55;100.00;101172.38;5071055;28;20189;-76
2021/12/12 03:07:00;;;;;;;5.63;3.13;;;;;;;2.55;100.00;101175.06;5070570;28;20206;-77
2021/12/12 03:09:36;;;;;;;1.70;1.60;;;;;;;2.58;100.00;101167.31;5070571;28;20669;-76
2021/12/12 03:12:12;;;;;;;8.30;4.53;;;;;;;2.59;100.00;101162.75;5070674;28;20166;-76
2021/12/12 03:14:40;;;;;;;4.03;3.73;;;;;;;2.60;100.00;101169.78;5069195;28;20177;-76
2021/12/12 03:17:20;;;;;;;3.30;1.40;;;;;;;2.62;100.00;101173.06;5070320;28;20196;-77
2021/12/12 03:20:01;;;;;;;7.23;4.57;;;;;;;2.59;100.00;101174.34;5065971;28;20582;-77
2021/12/12 03:22:27;;;;;;;5.80;5.27;;;;;;;2.63;100.00;101169.31;5050592;28;20202;-76
2021/12/12 03:24:53;;;;;;;7.20;4.23;;;;;;;2.66;100.00;101174.22;5050417;28;20578;-77
2021/12/12 03:27:20;;;;;;;8.27;6.67;;;;;;;2.61;100.00;101176.81;5050591;28;20199;-77
2021/12/12 03:29:47;;;;;;;10.07;6.67;;;;;;;2.52;100.00;101162.06;5050655;28;20175;-76
2021/12/12 03:32:17;;;;;;;5.67;4.33;;;;;;;2.60;100.00;101159.81;5050459;28;20491;-77
2021/12/12 03:34:47;;;;;;;6.23;5.60;;;;;;;2.63;100.00;101164.72;5050299;28;20178;-77
2021/12/12 03:37:16;;;;;;;7.80;4.07;;;;;;;2.65;100.00;101159.91;5050549;28;20174;-76
2021/12/12 03:39:45;;;;;;;3.23;2.67;;;;;;;2.62;100.00;101151.50;5050378;28;20175;-77
2021/12/12 03:42:16;;;;;;;4.47;3.63;;;;;;;2.68;100.00;101161.31;5050338;28;20171;-77
2021/12/12 03:44:43;;;;;;;5.27;2.70;;;;;;;2.69;100.00;101152.16;5050211;28;20221;-76
2021/12/12 03:47:11;;;;;;;12.13;1.40;;;;;;;2.68;100.00;101153.22;5050249;28;20292;-76
2021/12/12 03:49:37;;;;;;;3.47;3.17;;;;;;;2.73;100.00;101160.56;5050212;28;20199;-77
2021/12/12 03:52:08;;;;;;;1.53;1.30;;;;;;;2.76;100.00;101152.84;5065698;28;20183;-77
2021/12/12 03:54:34;;;;;;;0.77;0.77;;;;;;;2.77;100.00;101154.47;5050309;28;20199;-76
2021/12/12 03:57:00;;;;;;;6.40;2.67;;;;;;;2.78;100.00;101144.50;5050220;28;20176;-76
2021/12/12 03:59:26;;;;;;;3.00;2.37;;;;;;;2.80;100.00;101148.59;5050034;28;20183;-76
2021/12/12 04:01:53;;;;;;;5.93;4.30;;;;;;;2.86;99.70;101152.19;5048857;28;20207;-76
2021/12/12 04:04:31;;;;;;;4.77;3.90;;;;;;;2.90;99.46;101147.94;5049968;28;20199;-76
2021/12/12 04:06:57;;;;;;;2.60;2.40;;;;;;;2.91;99.17;101145.00;5049950;28;20674;-77
2021/12/12 04:09:23;;;;;;;7.07;3.40;;;;;;;2.94;98.89;101143.69;5049914;28;20193;-76
2021/12/12 04:11:54;;;;;;;2.57;1.20;;;;;;;2.94;97.96;101149.91;5050190;28;20184;-76
2021/12/12 04:14:21;;;;;;;2.30;1.80;;;;;;;2.94;97.81;101144.53;5048765;28;20218;-76
2021/12/12 04:16:59;;;;;;;1.63;1.53;;;;;;;2.90;97.56;101139.84;5049722;28;20191;-76
2021/12/12 04:19:26;;;;;;;1.63;1.53;;;;;;;2.86;98.46;101125.19;5050083;28;20179;-76
2021/12/12 04:21:52;;;;;;;0.43;0.40;;;;;;;2.85;98.63;101128.97;5050061;28;20225;-76
2021/12/12 04:24:24;;;;;;;1.27;1.27;;;;;;;2.85;98.39;101128.97;5050381;28;20184;-76
2021/12/12 04:26:51;;;;;;;2.50;1.63;;;;;;;2.88;98.40;101133.84;5049730;28;20211;-76
2021/12/12 04:29:20;;;;;;;3.83;3.57;;;;;;;2.86;98.21;101144.91;5053616;28;20661;-76
2021/12/12 04:31:55;;;;;;;3.30;2.90;;;;;;;2.83;99.20;101136.47;5053474;28;20207;-76
2021/12/12 04:34:24;;;;;;;2.27;2.07;;;;;;;2.82;99.05;101126.75;5053768;28;20171;-76
2021/12/12 04:36:50;;;;;;;10.77;6.37;;;;;;;2.78;99.22;101121.03;5053398;28;20163;-76
2021/12/12 04:39:19;;;;;;;3.60;3.40;;;;;;;2.83;99.11;101131.91;5053287;28;20168;-76
2021/12/12 04:41:47;;;;;;;3.10;2.80;;;;;;;2.87;98.62;101143.03;5053272;28;20183;-76
2021/12/12 04:44:19;;;;;;;5.37;4.27;;;;;;;2.88;98.50;101144.66;5053250;28;20175;-76
2021/12/12 04:49:58;;;;;;;8.70;6.13;;;;;;;2.84;99.01;101133.53;5053143;28;20245;-76
2021/12/12 04:52:43;;;;;;;5.80;4.17;;;;;;;2.84;99.23;101133.53;5053531;28;20263;-77
2021/12/12 04:55:24;;;;;;;5.80;4.80;;;;;;;2.87;99.28;101133.03;5052880;28;20180;-76
2021/12/12 04:58:05;;;;;;;5.63;4.03;;;;;;;2.87;99.74;101133.03;5053038;28;20265;-77
2021/12/12 05:00:35;;;;;;;3.23;2.40;;;;;;;2.96;99.51;101125.38;5052940;28;20254;-76
2021/12/12 05:03:13;;;;;;;5.67;2.10;;;;;;;2.99;99.10;101132.97;5052839;28;20305;-77
2021/12/12 05:05:47;;;;;;;1.33;1.30;;;;;;;3.02;98.72;101137.88;5052619;28;20202;-77
2021/12/12 05:08:40;;;;;;;4.13;3.72;;;;;;;2.96;98.79;101120.78;5053286;28;20411;-76
2021/12/12 05:11:10;;;;;;;2.47;1.57;;;;;;;3.11;98.39;101141.00;5015844;28;20194;-76
2021/12/12 05:13:52;;;;;;;4.00;1.53;;;;;;;3.22;97.21;101129.31;5052792;28;20524;-76
2021/12/12 05:16:44;;;;;;;5.60;3.33;;;;;;;3.22;97.19;101132.84;5052661;28;20171;-76
2021/12/12 05:19:17;;;;;;;0.87;0.87;;;;;;;3.28;96.41;101131.84;5049373;28;20712;-76
2021/12/12 05:21:47;;;;;;;3.63;2.63;;;;;;;3.24;96.07;101128.00;5052509;28;20175;-76
2021/12/12 05:24:16;;;;;;;4.40;3.03;;;;;;;3.23;96.60;101126.38;5061419;28;20262;-76
2021/12/12 05:26:51;;;;;;;2.10;1.87;;;;;;;3.28;96.42;101141.81;5072258;28;20525;-76
2021/12/12 05:29:25;;;;;;;4.33;3.00;;;;;;;3.25;96.16;101135.03;5072385;28;20174;-76
2021/12/12 05:31:56;;;;;;;4.10;3.50;;;;;;;3.26;96.39;101141.25;5072414;28;20159;-76
2021/12/12 05:34:27;;;;;;;4.93;3.17;;;;;;;3.25;96.27;101143.16;5072662;28;20401;-77
2021/12/12 05:36:53;;;;;;;4.20;3.77;;;;;;;3.27;96.42;101140.19;5072309;28;20703;-77
2021/12/12 05:39:20;;;;;;;3.97;3.57;;;;;;;3.26;96.40;101135.84;5072002;28;20533;-77
2021/12/12 05:41:48;;;;;;;6.60;3.77;;;;;;;3.29;96.59;101136.19;5072150;28;20174;-77
2021/12/12 05:44:14;;;;;;;4.97;3.50;;;;;;;3.21;96.37;101131.22;5072115;28;20231;-76
2021/12/12 05:46:40;;;;;;;4.43;3.53;;;;;;;3.17;96.95;101127.34;5071845;28;20245;-76
2021/12/12 05:49:06;;;;;;;5.63;4.40;;;;;;;3.20;97.20;101128.75;5072031;28;20194;-77
2021/12/12 05:51:33;;;;;;;5.67;5.17;;;;;;;3.19;96.84;101119.03;5071994;28;20170;-77
2021/12/12 05:53:58;;;;;;;5.63;4.00;;;;;;;3.14;97.43;101122.44;5071961;28;20175;-76
2021/12/12 05:56:27;;;;;;;7.07;4.17;;;;;;;3.10;96.97;101125.88;5071788;28;20236;-76
2021/12/12 05:58:53;;;;;;;5.00;3.97;;;;;;;3.05;97.79;101123.09;5072092;28;20175;-77
2021/12/12 06:01:19;;;;;;;5.70;4.27;;;;;;;3.00;98.15;101118.41;5071831;28;20532;-76
2021/12/12 06:03:45;;;;;;;5.00;3.63;;;;;;;3.08;98.10;101117.22;5071572;28;20257;-76
2021/12/12 06:06:14;;;;;;;4.70;3.60;;;;;;;3.10;97.49;101120.47;5071261;28;20213;-76
2021/12/12 06:08:43;;;;;;;5.00;3.07;;;;;;;3.14;97.15;101119.75;5071384;28;20182;-76
2021/12/12 06:11:10;;;;;;;6.87;3.63;;;;;;;3.13;96.90;101128.09;5071595;28;20185;-76
2021/12/12 06:13:38;;;;;;;6.23;2.50;;;;;;;3.15;96.97;101124.06;5071542;28;20685;-76
2021/12/12 06:16:05;;;;;;;4.37;3.57;;;;;;;3.03;97.24;101126.03;5071345;28;20174;-76
2021/12/12 06:18:33;;;;;;;7.80;5.20;;;;;;;2.96;97.84;101115.41;5071397;28;20178;-77
2021/12/12 06:20:59;;;;;;;6.07;4.53;;;;;;;2.89;97.71;101114.75;5071340;28;20174;-77
2021/12/12 06:23:26;;;;;;;5.43;4.13;;;;;;;3.01;98.44;101111.16;5071553;28;20232;-76
2021/12/12 06:25:52;;;;;;;4.57;2.60;;;;;;;3.07;97.92;101126.38;5071603;28;20210;-76
2021/12/12 06:28:32;;;;;;;4.40;3.83;;;;;;;3.03;97.70;101127.91;5071202;28;20622;-76
2021/12/12 06:30:58;;;;;;;3.43;3.10;;;;;;;3.00;97.54;101129.22;5071181;28;20167;-76
2021/12/12 06:33:24;;;;;;;6.57;5.80;;;;;;;2.89;98.29;101122.84;5070951;28;20194;-76
2021/12/12 06:35:50;;;;;;;3.20;2.70;;;;;;;2.92;98.68;101137.72;5070905;28;20577;-77
2021/12/12 06:38:17;;;;;;;6.33;5.40;;;;;;;2.91;98.96;101139.63;5070984;28;20256;-76
2021/12/12 06:40:44;;;;;;;5.17;4.67;;;;;;;2.90;99.63;101142.56;5071324;28;20249;-76
2021/12/12 06:43:13;;;;;;;7.00;5.27;;;;;;;2.82;100.00;101142.94;5070834;28;20560;-76
2021/12/12 06:45:39;;;;;;;4.47;4.00;;;;;;;2.85;100.00;101148.66;5070649;28;20179;-77
2021/12/12 06:48:06;;;;;;;1.00;1.00;;;;;;;2.83;100.00;101147.28;5070819;28;20628;-76
2021/12/12 06:50:33;;;;;;;1.13;1.03;;;;;;;2.79;100.00;101151.53;5070254;28;20178;-76
2021/12/12 06:52:59;;;;;;;8.60;5.10;;;;;;;2.74;100.00;101152.22;5070817;28;20178;-77
2021/12/12 06:55:26;;;;;;;4.77;4.30;;;;;;;2.76;100.00;101147.44;5070595;28;20186;-76
2021/12/12 06:57:51;;;;;;;4.37;3.13;;;;;;;2.75;100.00;101153.91;5070792;28;20178;-77
2021/12/12 07:00:24;;;;;;;5.77;4.63;;;;;;;2.74;100.00;101148.72;5070942;28;20622;-77
2021/12/12 07:02:50;;;;;;;10.13;4.87;;;;;;;2.73;100.00;101147.91;5070549;28;20186;-76
2021/12/12 07:05:21;;;;;;;7.40;4.87;;;;;;;2.66;100.00;101142.66;5070622;28;20174;-77
2021/12/12 07:07:49;;;;;;;6.00;4.97;;;;;;;2.72;100.00;101146.25;5070722;28;20355;-77
2021/12/12 07:10:17;;;;;;;7.87;4.50;;;;;;;2.73;100.00;101150.59;5070452;28;20190;-77
2021/12/12 07:12:44;;;;;;;5.27;3.97;;;;;;;2.67;100.00;101149.69;5070690;28;20171;-77
2021/12/12 07:15:12;;;;;;;8.03;5.03;;;;;;;2.72;100.00;101140.88;5070383;28;20181;-77
2021/12/12 07:17:39;;;;;;;7.57;5.10;;;;;;;2.77;100.00;101148.25;5070723;28;20206;-76
2021/12/12 07:20:07;;;;;;;7.10;4.63;;;;;;;2.80;100.00;101142.38;5070674;28;20179;-77
2021/12/12 07:22:33;;;;;;;5.80;5.07;;;;;;;2.79;100.00;101133.47;5070562;28;20186;-77
2021/12/12 07:25:04;;;;;;;5.80;5.20;;;;;;;2.87;100.00;101143.84;5070394;28;20190;-77
2021/12/12 07:27:30;;;;;;;6.47;4.40;;;;;;;2.91;100.00;101142.31;5070727;28;20564;-77
2021/12/12 07:29:56;;;;;;;4.53;4.10;;;;;;;2.94;100.00;101138.31;5070638;28;20171;-77
2021/12/12 07:32:22;;;;;;;5.50;4.63;;;;;;;2.81;100.00;101125.13;5070840;28;20174;-77
2021/12/12 07:34:48;;;;;;;6.50;5.80;;;;;;;2.73;100.00;101128.19;5070692;28;20186;-77
2021/12/12 07:37:14;;;;;;;7.23;5.73;;;;;;;2.57;100.00;101129.78;5070620;28;20203;-77
2021/12/12 07:39:42;;;;;;;7.90;5.23;;;;;;;2.68;100.00;101120.84;5075038;28;20240;-76
2021/12/12 07:42:10;;;;;;;11.07;8.52;;;;;;;2.77;100.00;101115.88;5073340;28;20885;-77
2021/12/12 07:44:37;;;;;;;7.47;6.13;;;;;;;2.85;100.00;101123.56;5072142;28;20174;-77
2021/12/12 07:47:05;;;;;;;9.47;6.23;;;;;;;2.83;100.00;101126.50;5070848;28;20272;-77
2021/12/12 07:49:35;;;;;;;4.70;3.70;;;;;;;2.79;100.00;101122.66;5071157;28;20174;-77
2021/12/12 07:52:03;;;;;;;6.27;5.63;;;;;;;2.82;100.00;101126.75;5070907;28;20216;-77
2021/12/12 07:54:29;;;;;;;4.77;4.27;;;;;;;2.79;100.00;101106.47;5070363;28;20170;-77
2021/12/12 07:56:55;;;;;;;4.27;3.87;;;;;;;2.71;100.00;101106.84;5069508;28;20655;-76
2021/12/12 07:59:20;;;;;;;2.80;2.57;;;;;;;2.69;100.00;101112.50;5070231;28;20253;-77
2021/12/12 08:01:48;;;;;;;4.00;2.47;;;;;;;2.66;100.00;101114.88;5071633;28;20215;-77
2021/12/12 08:04:16;;;;;;;9.37;5.17;;;;;;;2.59;100.00;101106.09;5073582;28;20173;-76
2021/12/12 08:06:43;;;;;;;5.60;4.70;;;;;;;2.60;100.00;101132.00;5072505;28;20216;-76
2021/12/12 08:09:11;;;;;;;8.03;4.97;;;;;;;2.66;100.00;101121.09;5073609;28;20182;-77
2021/12/12 08:11:38;;;;;;;10.30;4.47;;;;;;;2.63;100.00;101120.75;5073856;28;20171;-77
2021/12/12 08:14:07;;;;;;;5.00;4.27;;;;;;;2.68;100.00;101128.94;5073637;28;20178;-76
2021/12/12 08:16:33;;;;;;;6.23;4.33;;;;;;;2.59;100.00;101125.78;5073523;28;20186;-77
2021/12/12 08:19:00;;;;;;;4.97;3.93;;;;;;;2.61;100.00;101120.19;5073642;28;20235;-75
2021/12/12 08:21:26;;;;;;;3.70;3.23;;;;;;;2.70;100.00;101126.81;5073638;28;20174;-76
2021/12/12 08:23:55;;;;;;;8.97;5.27;;;;;;;2.78;100.00;101118.34;5073571;28;20171;-76
2021/12/12 08:26:22;;;;;;;4.17;3.63;;;;;;;2.83;100.00;101115.72;5071794;28;20202;-77
2021/12/12 08:28:47;;;;;;;5.90;2.83;;;;;;;2.81;100.00;101117.03;5073290;28;20171;-76
2021/12/12 08:31:15;;;;;;;4.83;2.97;;;;;;;2.86;100.00;101109.00;5073200;28;20178;-76
2021/12/12 08:33:41;;;;;;;3.07;2.27;;;;;;;2.84;100.00;101114.66;5073466;28;20258;-76
2021/12/12 08:36:09;;;;;;;3.00;2.50;;;;;;;2.87;100.00;101124.13;5073028;28;20428;-76
2021/12/12 08:38:35;;;;;;;0.47;0.47;;;;;;;2.85;100.00;101123.56;5073157;28;20175;-76
2021/12/12 08:41:03;;;;;;;4.37;2.10;;;;;;;2.83;100.00;101125.69;5073448;28;20228;-75
2021/12/12 08:43:29;;;;;;;5.17;2.07;;;;;;;2.84;100.00;101136.22;5073082;28;20175;-76
2021/12/12 08:45:58;;;;;;;0.67;0.67;;;;;;;2.83;100.00;101134.59;5072736;28;20201;-76
2021/12/12 08:48:26;;;;;;;4.77;1.97;;;;;;;2.79;100.00;101119.97;5071744;28;20174;-76
2021/12/12 08:50:56;;;;;;;3.23;2.67;;;;;;;2.85;100.00;101108.19;5073446;28;20166;-76
2021/12/12 08:53:22;;;;;;;3.17;2.83;;;;;;;2.83;100.00;101110.31;5072803;28;20178;-76
2021/12/12 08:55:50;;;;;;;2.20;1.53;;;;;;;2.92;100.00;101113.44;5073015;28;20179;-76
2021/12/12 08:58:20;;;;;;;8.23;1.17;;;;;;;2.91;100.00;101115.31;5072832;28;20245;-76
2021/12/12 09:01:04;;;;;;;0.60;0.60;;;;;;;2.88;100.00;101113.09;5072889;28;20631;-76
2021/12/12 09:03:38;;;;;;;8.00;2.40;;;;;;;2.86;100.00;101112.53;5072564;28;20519;-76
2021/12/12 09:06:07;;;;;;;1.23;0.90;;;;;;;2.90;100.00;101112.88;5072679;28;20194;-77
2021/12/12 09:08:49;;;;;;;0.07;0.07;;;;;;;2.89;100.00;101106.66;5072751;28;20312;-76
2021/12/12 09:11:33;;;;;;;0.60;0.60;;;;;;;2.92;100.00;101108.03;5072582;28;20185;-76
2021/12/12 09:14:06;;;;;;;2.17;1.60;;;;;;;2.87;100.00;101091.75;5071965;28;20254;-76
2021/12/12 09:16:46;;;;;;;2.47;2.30;;;;;;;2.88;100.00;101088.81;5072381;28;20170;-76
2021/12/12 09:19:38;;;;;;;1.07;1.00;;;;;;;2.88;100.00;101086.09;5072581;28;20159;-76
2021/12/12 09:22:13;;;;;;;3.70;2.77;;;;;;;2.83;100.00;101074.41;5067677;28;20190;-76
2021/12/12 09:24:49;;;;;;;6.00;1.77;;;;;;;2.81;100.00;101081.94;5072257;28;20170;-77
2021/12/12 09:27:25;;;;;;;2.40;2.00;;;;;;;2.84;100.00;101086.84;5072144;28;20197;-77
2021/12/12 09:30:00;;;;;;;1.30;1.27;;;;;;;2.86;100.00;101084.72;5072593;28;20177;-77
2021/12/12 09:32:26;;;;;;;3.80;2.57;;;;;;;2.80;100.00;101075.72;5072396;28;20622;-76
2021/12/12 09:35:08;;;;;;;0.70;0.70;;;;;;;2.85;100.00;101101.97;5071900;28;20257;-76
2021/12/12 09:38:06;;;;;;;0.67;0.67;;;;;;;2.83;100.00;101096.81;5072111;28;20676;-77
2021/12/12 09:41:03;;;;;;;0.40;0.40;;;;;;;2.87;100.00;101089.88;5071606;28;20221;-76
2021/12/12 09:43:59;;;;;;;0.37;0.37;;;;;;;2.95;100.00;101092.19;5070742;28;20179;-76
2021/12/12 09:46:56;;;;;;;1.90;0.50;;;;;;;2.95;100.00;101089.47;5071723;28;20742;-76
2021/12/12 09:53:20;;;;;;;2.80;2.03;;;;;;;3.13;100.00;101079.50;5039513;28;20197;-75
2021/12/12 09:56:18;;;;;;;1.60;1.17;;;;;;;3.18;100.00;101083.09;5072059;28;20175;-75
2021/12/12 09:58:54;;;;;;;2.67;2.37;;;;;;;3.26;100.00;101073.75;5054766;28;20275;-75
2021/12/12 10:01:23;;;;;;;0.57;0.57;;;;;;;3.30;100.00;101074.88;5071391;28;20219;-76
2021/12/12 10:03:48;;;;;;;0.93;0.67;;;;;;;3.34;100.00;101077.94;5071570;28;20223;-75
2021/12/12 10:06:32;;;;;;;3.13;2.83;;;;;;;3.34;100.00;101076.06;5069833;28;20202;-75
2021/12/12 10:09:07;;;;;;;1.10;1.03;;;;;;;3.43;100.00;101074.53;5069690;28;20182;-76
2021/12/12 10:12:06;;;;;;;0.57;0.57;;;;;;;3.48;100.00;101074.63;5070798;28;20198;-76
2021/12/12 10:14:57;;;;;;;0.37;0.37;;;;;;;3.57;100.00;101066.91;5069027;28;20182;-75
2021/12/12 10:17:26;;;;;;;0.93;0.90;;;;;;;3.65;100.00;101068.38;5071361;28;20530;-78
2021/12/12 10:19:57;;;;;;;0.90;0.90;;;;;;;3.70;100.00;101066.53;5071468;28;20175;-76
2021/12/12 10:23:13;;;;;;;2.13;0.73;;;;;;;3.75;100.00;101065.78;5071284;28;20186;-75
2021/12/12 10:25:50;;;;;;;0.30;0.30;;;;;;;3.76;100.00;101049.34;5013638;28;20190;-81
2021/12/12 10:28:31;;;;;;;0.67;0.33;;;;;;;3.79;100.00;101059.66;5070075;28;20178;-75
2021/12/12 10:31:05;;;;;;;1.57;0.97;;;;;;;3.79;100.00;101042.63;5067816;28;20217;-76
2021/12/12 10:33:54;;;;;;;1.13;1.13;;;;;;;3.81;100.00;101038.59;5071019;28;20277;-76
2021/12/12 10:36:27;;;;;;;1.47;1.33;;;;;;;3.82;100.00;101042.91;5069612;28;20178;-75
2021/12/12 10:38:55;;;;;;;2.40;1.40;;;;;;;3.83;100.00;101043.72;5071092;28;20179;-75
2021/12/12 10:41:34;;;;;;;7.73;0.67;;;;;;;3.81;100.00;101035.88;5069757;28;20210;-76
2021/12/12 10:44:09;;;;;;;1.03;0.73;;;;;;;3.81;100.00;101054.81;5070979;28;20177;-75
2021/12/12 10:46:53;;;;;;;1.67;1.57;;;;;;;3.79;100.00;101032.63;5070925;28;20540;-75
2021/12/12 10:49:19;;;;;;;3.13;1.53;;;;;;;3.77;100.00;101037.47;5070990;28;20228;-76
2021/12/12 10:51:49;;;;;;;1.80;1.33;;;;;;;3.78;100.00;101043.69;5069855;28;20178;-76
2021/12/12 10:54:34;;;;;;;3.40;2.23;;;;;;;3.81;100.00;101044.00;5070590;28;20261;-75
2021/12/12 10:57:08;;;;;;;3.83;1.77;;;;;;;3.83;100.00;101044.56;5069476;28;20638;-75
2021/12/12 10:59:37;;;;;;;1.60;0.83;;;;;;;3.84;100.00;101050.78;5068693;28;20630;-76
2021/12/12 11:02:07;;;;;;;2.10;1.97;;;;;;;3.84;100.00;101043.47;5070363;28;20174;-77
2021/12/12 11:04:44;;;;;;;1.07;1.03;;;;;;;3.88;100.00;101039.19;5070746;28;20175;-75
2021/12/12 11:07:37;;;;;;;1.00;0.93;;;;;;;3.92;100.00;101030.59;5069285;28;20568;-77
2021/12/12 11:10:17;;;;;;;0.37;0.37;;;;;;;3.98;100.00;101041.22;5070664;28;20186;-76
2021/12/12 11:12:55;;;;;;;1.83;1.23;;;;;;;4.00;100.00;101041.78;5070623;28;20645;-76
2021/12/12 11:15:24;;;;;;;0.60;0.60;;;;;;;4.06;100.00;101035.38;5069284;28;20185;-75
2021/12/12 11:18:03;;;;;;;6.90;1.20;;;;;;;4.10;100.00;101035.66;5070167;28;20162;-77
2021/12/12 11:20:38;;;;;;;3.87;0.50;;;;;;;4.15;100.00;101047.34;5070569;28;20689;-76
2021/12/12 11:23:10;;;;;;;0.57;0.40;;;;;;;4.16;100.00;101038.16;5070462;28;20542;-76
2021/12/12 11:25:41;;;;;;;0.40;0.40;;;;;;;4.17;100.00;101042.50;5070230;28;20218;-77
2021/12/12 11:28:09;;;;;;;1.97;1.60;;;;;;;4.21;100.00;101042.03;5070328;28;20175;-76
2021/12/12 11:30:41;;;;;;;0.87;0.87;;;;;;;4.23;100.00;101042.56;5070439;28;20171;-77
2021/12/12 11:33:11;;;;;;;0.97;0.87;;;;;;;4.24;100.00;101039.63;5070336;28;20662;-76
2021/12/12 11:35:39;;;;;;;1.00;0.77;;;;;;;4.26;100.00;101032.06;5070247;28;20174;-77
2021/12/12 11:38:23;;;;;;;0.90;0.90;;;;;;;4.26;100.00;101033.94;5074173;28;20787;-77
2021/12/12 11:41:07;;;;;;;2.00;1.37;;;;;;;4.31;100.00;101034.00;5074981;28;20185;-76
2021/12/12 11:43:53;;;;;;;1.07;0.83;;;;;;;4.31;100.00;101032.09;5074530;28;20190;-77
2021/12/12 11:46:28;;;;;;;1.23;1.07;;;;;;;4.35;100.00;101035.13;5074313;28;20298;-75
2021/12/12 11:49:21;;;;;;;1.33;1.23;;;;;;;4.37;100.00;101035.69;5074394;28;20168;-77
2021/12/12 11:51:59;;;;;;;0.60;0.50;;;;;;;4.39;100.00;101037.06;5074234;28;20178;-77
2021/12/12 11:54:56;;;;;;;0.27;0.27;;;;;;;4.41;100.00;101028.69;5074275;28;20170;-75
2021/12/12 11:57:26;;;;;;;0.77;0.77;;;;;;;4.45;100.00;101027.09;5065674;28;20215;-75
2021/12/12 12:00:19;;;;;;;1.50;1.10;;;;;;;4.45;100.00;101029.81;5074282;28;20159;-75
2021/12/12 12:03:14;;;;;;;0.40;0.40;;;;;;;4.47;100.00;101030.34;5073921;28;20174;-75
2021/12/12 12:06:21;;;;;;;0.20;0.20;;;;;;;4.51;100.00;101034.22;5073777;28;20210;-75
2021/12/12 12:08:59;;;;;;;1.03;0.50;;;;;;;4.54;100.00;101043.69;5073793;28;20185;-75
2021/12/12 12:12:02;;;;;;;0.97;0.93;;;;;;;4.59;100.00;101024.78;5074042;28;20178;-75